createdAt,value
2016-01-04T07:55:34.671Z,19.2
2016-01-04T07:56:27.406Z,19.4
2016-01-04T07:56:37.349Z,19.4
2016-01-04T07:56:47.364Z,19.5
2016-01-04T07:56:57.349Z,19.5
2016-01-04T07:57:07.349Z,19.5
2016-01-04T07:57:17.364Z,19.5
2016-01-04T07:57:27.349Z,19.6
2016-01-04T07:57:37.339Z,19.6
2016-01-04T07:57:47.339Z,19.6
2016-01-04T07:57:57.339Z,19.7
2016-01-04T07:58:07.339Z,19.7
2016-01-04T07:58:17.339Z,19.7
2016-01-04T07:58:27.339Z,19.7
2016-01-04T07:58:37.330Z,19.8
2016-01-04T07:58:47.330Z,19.8
2016-01-04T07:58:57.330Z,19.9
2016-01-04T07:59:07.330Z,19.9
2016-01-04T07:59:17.330Z,19.9
2016-01-04T07:59:27.330Z,19.9
2016-01-04T07:59:37.320Z,19.9
2016-01-04T07:59:47.320Z,19.9
2016-01-04T07:59:57.320Z,19.9
2016-01-04T08:00:07.320Z,20
2016-01-04T08:00:17.320Z,20
2016-01-04T08:00:27.304Z,20
2016-01-04T08:00:37.300Z,20
2016-01-04T08:00:47.300Z,20
2016-01-04T08:00:57.300Z,20.1
2016-01-04T08:01:07.300Z,20.1
2016-01-04T08:01:17.300Z,20.1
2016-01-04T08:01:27.300Z,20.1
2016-01-04T08:01:37.298Z,20.1
2016-01-04T08:01:47.298Z,20.2
2016-01-04T08:01:57.298Z,20.2
2016-01-04T08:02:07.314Z,20.2
2016-01-04T08:02:17.298Z,20.2
2016-01-04T08:02:27.298Z,20.2
2016-01-04T08:02:37.296Z,20.3
2016-01-04T08:02:47.296Z,20.3
2016-01-04T08:02:57.296Z,20.3
2016-01-04T08:03:07.296Z,20.3
2016-01-04T08:03:17.296Z,20.3
2016-01-04T08:03:27.296Z,20.4
2016-01-04T08:03:37.294Z,20.4
2016-01-04T08:03:47.294Z,20.4
2016-01-04T08:03:57.294Z,20.4
2016-01-04T08:04:07.294Z,20.5
2016-01-04T08:04:17.294Z,20.5
2016-01-04T08:04:27.294Z,20.5
2016-01-04T08:04:37.294Z,20.5
2016-01-04T08:04:47.292Z,20.5
2016-01-04T08:04:57.292Z,20.5
2016-01-04T08:05:07.292Z,20.6
2016-01-04T08:05:17.339Z,20.6
2016-01-04T08:05:27.292Z,20.6
2016-01-04T08:05:37.308Z,20.6
2016-01-04T08:05:47.292Z,20.6
2016-01-04T08:05:57.276Z,20.6
2016-01-04T08:06:07.276Z,20.7
2016-01-04T08:06:17.292Z,20.7
2016-01-04T08:06:27.292Z,20.7
2016-01-04T08:06:37.292Z,20.7
2016-01-04T08:06:47.293Z,20.7
2016-01-04T08:06:57.293Z,20.7
2016-01-04T08:07:07.293Z,20.7
2016-01-04T08:07:17.293Z,20.8
2016-01-04T08:07:27.277Z,20.8
2016-01-04T08:07:37.293Z,20.8
2016-01-04T08:07:47.278Z,20.8
2016-01-04T08:07:57.278Z,20.8
2016-01-04T08:08:07.278Z,20.8
2016-01-04T08:08:17.294Z,20.8
2016-01-04T08:08:27.278Z,20.8
2016-01-04T08:08:37.278Z,20.8
2016-01-04T08:08:47.280Z,20.8
2016-01-04T08:08:57.280Z,20.8
2016-01-04T08:09:07.280Z,20.9
2016-01-04T08:09:17.280Z,20.9
2016-01-04T08:09:27.280Z,20.9
2016-01-04T08:09:37.280Z,20.9
2016-01-04T08:09:47.281Z,20.9
2016-01-04T08:09:57.281Z,20.9
2016-01-04T08:10:07.281Z,20.9
2016-01-04T08:10:17.281Z,21
2016-01-04T08:10:27.281Z,21
2016-01-04T08:10:37.281Z,21
2016-01-04T08:10:47.283Z,21
2016-01-04T08:10:57.283Z,21
2016-01-04T08:11:07.283Z,21
2016-01-04T08:11:17.283Z,21
2016-01-04T08:11:27.283Z,21
2016-01-04T08:11:37.283Z,21.1
2016-01-04T08:11:47.285Z,21.1
2016-01-04T08:11:57.285Z,21.1
2016-01-04T08:12:07.285Z,21.1
2016-01-04T08:12:17.285Z,21.1
2016-01-04T08:12:27.285Z,21.1
2016-01-04T08:12:37.285Z,21.1
2016-01-04T08:12:47.287Z,21.1
2016-01-04T08:12:57.272Z,21.1
2016-01-04T08:13:07.287Z,21.1
2016-01-04T08:13:17.287Z,21.1
2016-01-04T08:13:27.272Z,21.1
2016-01-04T08:13:37.272Z,21.2
2016-01-04T08:13:47.290Z,21.2
2016-01-04T08:13:57.275Z,21.2
2016-01-04T08:14:07.275Z,21.2
2016-01-04T08:14:17.290Z,21.2
2016-01-04T08:14:27.290Z,21.2
2016-01-04T08:14:37.290Z,21.2
2016-01-04T08:14:47.292Z,21.2
2016-01-04T08:14:57.277Z,21.2
2016-01-04T08:15:07.292Z,21.2
2016-01-04T08:15:17.277Z,21.2
2016-01-04T08:15:27.292Z,21.2
2016-01-04T08:15:37.277Z,21.3
2016-01-04T08:15:48.405Z,21.3
2016-01-04T08:15:58.405Z,21.2
2016-01-04T08:18:19.128Z,21.4
2016-01-04T08:18:55.568Z,21.4
2016-01-04T08:19:05.521Z,21.4
2016-01-04T08:19:15.521Z,21.4
2016-01-04T08:19:25.521Z,21.4
2016-01-04T08:19:35.521Z,21.5
2016-01-04T08:19:45.523Z,21.5
2016-01-04T08:19:55.523Z,21.5
2016-01-04T08:20:05.523Z,21.5
2016-01-04T08:20:15.523Z,21.5
2016-01-04T08:20:25.523Z,21.5
2016-01-04T08:20:35.523Z,21.5
2016-01-04T08:20:45.525Z,21.5
2016-01-04T08:20:55.525Z,21.6
2016-01-04T08:21:05.525Z,21.5
2016-01-04T08:21:15.525Z,21.5
2016-01-04T08:21:25.525Z,21.6
2016-01-04T08:21:54.528Z,21.6
2016-01-04T08:22:04.528Z,21.6
2016-01-04T08:22:14.528Z,21.6
2016-01-04T08:22:24.528Z,21.6
2016-01-04T08:22:34.528Z,21.6
2016-01-04T08:22:44.531Z,21.7
2016-01-04T08:22:54.531Z,21.6
2016-01-04T08:23:04.531Z,21.6
2016-01-04T08:23:53.221Z,21.7
2016-01-04T08:28:08.092Z,21.7
2016-01-04T08:28:18.092Z,21.7
2016-01-04T08:28:28.092Z,21.7
2016-01-04T08:28:38.076Z,21.7
2016-01-04T08:28:48.079Z,21.8
2016-01-04T08:28:58.079Z,21.8
2016-01-04T08:29:08.079Z,21.8
2016-01-04T08:29:18.079Z,21.9
2016-01-04T08:29:28.079Z,21.9
2016-01-04T08:29:38.079Z,21.9
2016-01-04T08:29:48.081Z,21.9
2016-01-04T08:30:16.144Z,21.9
2016-01-04T08:30:26.144Z,21.9
2016-01-04T08:30:36.144Z,21.9
2016-01-04T08:30:46.147Z,21.9
2016-01-04T08:30:56.147Z,22
2016-01-04T08:31:06.147Z,22
2016-01-04T08:31:16.147Z,21.9
2016-01-04T08:31:39.053Z,21.9
2016-01-04T08:31:49.040Z,21.9
2016-01-04T08:31:59.040Z,21.9
2016-01-04T08:33:20.433Z,21.9
2016-01-04T08:33:30.402Z,21.9
2016-01-04T08:34:24.389Z,21.9
2016-01-04T08:35:26.595Z,21.9
2016-01-04T08:35:36.533Z,21.9
2016-01-04T08:36:07.285Z,22
2016-01-04T08:36:17.238Z,21.9
2016-01-04T08:36:27.238Z,21.9
2016-01-04T08:36:37.238Z,21.9
2016-01-04T08:36:47.257Z,21.9
2016-01-04T08:36:57.257Z,21.9
2016-01-04T08:37:07.241Z,21.9
2016-01-04T08:37:17.241Z,21.9
2016-01-04T08:37:38.788Z,21.8
2016-01-04T08:37:48.774Z,21.9
2016-01-04T08:37:58.790Z,21.9
2016-01-04T08:38:10.149Z,21.9
2016-01-04T08:38:20.102Z,21.8
2016-01-04T08:39:18.199Z,21.9
2016-01-04T08:39:28.168Z,21.9
2016-01-04T08:39:38.168Z,21.9
2016-01-04T08:39:48.171Z,21.9
2016-01-04T08:40:23.421Z,21.9
2016-01-04T08:40:59.845Z,21.9
2016-01-04T08:41:09.798Z,21.9
2016-01-04T08:41:19.798Z,21.9
2016-01-04T08:41:39.032Z,22
2016-01-04T08:41:49.004Z,22
2016-01-04T08:41:59.004Z,22
2016-01-04T08:42:09.004Z,22
2016-01-04T08:42:19.004Z,22
2016-01-04T08:42:28.988Z,22
2016-01-04T08:42:58.054Z,22
2016-01-04T08:43:08.054Z,22
2016-01-04T08:43:18.054Z,22
2016-01-04T08:43:28.054Z,22
2016-01-04T08:44:44.885Z,22
2016-01-04T08:44:54.857Z,22
2016-01-04T08:45:04.841Z,22
2016-01-04T08:45:41.294Z,22
2016-01-04T08:45:51.249Z,22
2016-01-04T08:46:01.249Z,22
2016-01-04T08:46:11.249Z,22
2016-01-04T08:46:21.249Z,22.1
2016-01-04T08:46:46.828Z,22.1
2016-01-04T08:46:56.768Z,22.1
2016-01-04T08:47:06.768Z,22.1
2016-01-04T08:47:16.784Z,22.1
2016-01-04T08:47:45.987Z,22.1
2016-01-04T08:47:51.755Z,22.1
2016-01-04T08:48:01.693Z,22.1
2016-01-04T08:48:11.693Z,22.1
2016-01-04T08:48:21.693Z,22.1
2016-01-04T08:48:31.084Z,22.1
2016-01-04T08:48:41.115Z,22.2
2016-01-04T08:48:51.070Z,22.2
2016-01-04T08:49:01.086Z,22.2
2016-01-04T08:49:11.070Z,22.2
2016-01-04T08:49:21.070Z,22.2
2016-01-04T08:49:31.070Z,22.2
2016-01-04T08:49:41.070Z,22.2
2016-01-04T08:49:51.073Z,22.2
2016-01-04T08:50:01.073Z,22.1
2016-01-04T08:50:11.073Z,22.1
2016-01-04T08:50:21.073Z,22.1
2016-01-04T08:50:31.073Z,22
2016-01-04T08:50:41.089Z,22
2016-01-04T08:50:51.076Z,22
2016-01-04T08:51:01.076Z,22
2016-01-04T08:51:11.092Z,22
2016-01-04T08:51:21.076Z,22
2016-01-04T08:51:31.076Z,22
2016-01-04T08:51:41.076Z,22
2016-01-04T08:51:51.079Z,22
2016-01-04T08:52:01.079Z,22
2016-01-04T08:52:11.079Z,21.9
2016-01-04T08:52:21.079Z,21.9
2016-01-04T08:52:31.079Z,21.9
2016-01-04T08:52:41.079Z,21.9
2016-01-04T08:52:51.081Z,21.9
2016-01-04T08:53:01.081Z,21.9
2016-01-04T08:53:11.081Z,21.9
2016-01-04T08:53:21.081Z,21.9
2016-01-04T08:53:31.081Z,21.9
2016-01-04T08:53:41.097Z,21.9
2016-01-04T08:53:51.084Z,21.9
2016-01-04T08:54:01.084Z,21.9
2016-01-04T08:54:11.084Z,21.9
2016-01-04T08:54:21.084Z,21.9
2016-01-04T08:54:31.084Z,21.9
2016-01-04T08:54:41.084Z,21.9
2016-01-04T08:54:51.087Z,21.9
2016-01-04T08:55:01.087Z,21.9
2016-01-04T08:55:11.087Z,21.9
2016-01-04T08:55:21.087Z,21.9
2016-01-04T08:55:31.087Z,21.9
2016-01-04T08:55:41.087Z,21.9
2016-01-04T08:55:51.090Z,21.9
2016-01-04T08:56:01.090Z,21.9
2016-01-04T08:56:11.090Z,21.9
2016-01-04T08:56:21.090Z,21.9
2016-01-04T08:56:31.090Z,21.9
2016-01-04T08:56:41.090Z,21.9
2016-01-04T08:56:51.092Z,21.8
2016-01-04T08:57:01.092Z,21.9
2016-01-04T08:57:11.092Z,21.8
2016-01-04T08:57:21.092Z,21.8
2016-01-04T08:57:31.092Z,21.8
2016-01-04T08:57:41.092Z,21.8
2016-01-04T08:57:51.095Z,21.8
2016-01-04T08:58:01.095Z,21.8
2016-01-04T08:58:11.095Z,21.9
2016-01-04T08:58:21.095Z,21.9
2016-01-04T08:58:31.095Z,21.9
2016-01-04T08:58:41.111Z,21.9
2016-01-04T08:58:51.098Z,21.9
2016-01-04T08:59:01.098Z,21.9
2016-01-04T08:59:11.098Z,21.9
2016-01-04T08:59:21.098Z,21.9
2016-01-04T08:59:31.098Z,22
2016-01-04T08:59:41.082Z,22
2016-01-04T08:59:51.084Z,22
2016-01-04T09:00:01.100Z,22
2016-01-04T09:00:11.084Z,22
2016-01-04T09:00:21.084Z,22
2016-01-04T09:00:31.100Z,22
2016-01-04T09:00:41.100Z,22
2016-01-04T09:00:51.103Z,22
2016-01-04T09:01:01.103Z,22.1
2016-01-04T09:01:11.103Z,22.1
2016-01-04T09:01:21.103Z,22.1
2016-01-04T09:01:31.087Z,22.1
2016-01-04T09:01:41.087Z,22.1
2016-01-04T09:01:51.106Z,22.1
2016-01-04T09:02:01.106Z,22.1
2016-01-04T09:02:11.090Z,22.1
2016-01-04T09:02:21.090Z,22.1
2016-01-04T09:02:31.090Z,22.1
2016-01-04T09:02:41.106Z,22.1
2016-01-04T09:02:51.108Z,22.1
2016-01-04T09:03:01.124Z,22.1
2016-01-04T09:03:11.108Z,22.1
2016-01-04T09:03:21.092Z,22.1
2016-01-04T09:03:31.108Z,22.1
2016-01-04T09:03:41.108Z,22.1
2016-01-04T09:03:51.111Z,22.1
2016-01-04T09:04:01.111Z,22.1
2016-01-04T09:04:11.095Z,22.1
2016-01-04T09:04:21.095Z,22.1
2016-01-04T09:04:31.095Z,22.1
2016-01-04T09:04:41.095Z,22.1
2016-01-04T09:04:51.098Z,22.1
2016-01-04T09:05:01.098Z,22.1
2016-01-04T09:05:11.098Z,22.1
2016-01-04T09:05:21.114Z,22.1
2016-01-04T09:05:31.098Z,22.1
2016-01-04T09:05:41.114Z,22.1
2016-01-04T09:05:51.100Z,22.1
2016-01-04T09:06:01.100Z,22.1
2016-01-04T09:06:11.116Z,22.1
2016-01-04T09:06:21.100Z,22.1
2016-01-04T09:06:31.100Z,22.1
2016-01-04T09:06:41.100Z,22.1
2016-01-04T09:06:51.103Z,22.1
2016-01-04T09:07:01.103Z,22
2016-01-04T09:07:11.103Z,22
2016-01-04T09:07:21.103Z,22.1
2016-01-04T09:07:31.103Z,22.1
2016-01-04T09:07:41.103Z,22.1
2016-01-04T09:07:51.106Z,22.1
2016-01-04T09:08:01.106Z,22.1
2016-01-04T09:08:11.106Z,22.1
2016-01-04T09:08:21.106Z,22.1
2016-01-04T09:08:31.106Z,22.1
2016-01-04T09:08:41.106Z,22.2
2016-01-04T09:08:51.108Z,22.2
2016-01-04T09:09:01.108Z,22.2
2016-01-04T09:09:11.108Z,22.2
2016-01-04T09:09:21.108Z,22.2
2016-01-04T09:09:31.108Z,22.2
2016-01-04T09:09:41.108Z,22.3
2016-01-04T09:09:51.111Z,22.3
2016-01-04T09:10:01.111Z,22.3
2016-01-04T09:10:11.111Z,22.3
2016-01-04T09:10:21.111Z,22.3
2016-01-04T09:10:31.111Z,22.3
2016-01-04T09:10:41.111Z,22.3
2016-01-04T09:10:51.114Z,22.3
2016-01-04T09:11:01.114Z,22.3
2016-01-04T09:11:11.114Z,22.3
2016-01-04T09:11:21.114Z,22.3
2016-01-04T09:11:31.114Z,22.3
2016-01-04T09:11:41.114Z,22.3
2016-01-04T09:11:51.117Z,22.3
2016-01-04T09:12:01.117Z,22.2
2016-01-04T09:12:13.242Z,22.2
2016-01-04T09:12:23.242Z,22.3
2016-01-04T09:12:33.242Z,22.3
2016-01-04T09:12:43.242Z,22.3
2016-01-04T09:12:53.244Z,22.4
2016-01-04T09:13:03.244Z,22.4
2016-01-04T09:13:13.244Z,22.4
2016-01-04T09:13:23.244Z,22.4
2016-01-04T09:13:33.244Z,22.4
2016-01-04T09:13:43.244Z,22.4
2016-01-04T09:13:53.246Z,22.4
2016-01-04T09:14:03.246Z,22.4
2016-01-04T09:14:13.246Z,22.4
2016-01-04T09:14:23.246Z,22.4
2016-01-04T09:14:33.246Z,22.4
2016-01-04T09:14:55.624Z,22.4
2016-01-04T09:15:05.624Z,22.4
2016-01-04T09:15:15.624Z,22.4
2016-01-04T09:15:25.624Z,22.4
2016-01-04T09:15:35.624Z,22.4
2016-01-04T09:15:45.624Z,22.4
2016-01-04T09:15:55.627Z,22.4
2016-01-04T09:16:24.127Z,22.4
2016-01-04T09:17:00.662Z,22.5
2016-01-04T09:17:10.599Z,22.4
2016-01-04T09:17:20.599Z,22.4
2016-01-04T09:17:30.599Z,22.5
2016-01-04T09:17:40.599Z,22.4
2016-01-04T09:17:50.583Z,22.5
2016-01-04T09:18:00.585Z,22.5
2016-01-04T09:18:10.585Z,22.5
2016-01-04T09:18:30.976Z,22.4
2016-01-04T09:19:01.714Z,22.5
2016-01-04T09:19:11.683Z,22.4
2016-01-04T09:19:21.668Z,22.5
2016-01-04T09:19:31.683Z,22.5
2016-01-04T09:19:41.683Z,22.5
2016-01-04T09:19:51.683Z,22.5
2016-01-04T09:20:01.685Z,22.5
2016-01-04T09:20:11.685Z,22.5
2016-01-04T09:20:21.685Z,22.5
2016-01-04T09:20:31.685Z,22.5
2016-01-04T09:20:41.670Z,22.5
2016-01-04T09:20:51.685Z,22.5
2016-01-04T09:21:01.673Z,22.5
2016-01-04T09:21:11.673Z,22.5
2016-01-04T09:21:21.673Z,22.5
2016-01-04T09:21:31.688Z,22.5
2016-01-04T09:21:41.673Z,22.5
2016-01-04T09:21:51.688Z,22.5
2016-01-04T09:22:01.675Z,22.5
2016-01-04T09:22:11.675Z,22.5
2016-01-04T09:22:21.675Z,22.5
2016-01-04T09:22:31.675Z,22.6
2016-01-04T09:22:41.675Z,22.6
2016-01-04T09:22:51.675Z,22.6
2016-01-04T09:23:01.678Z,22.6
2016-01-04T09:23:11.678Z,22.6
2016-01-04T09:23:27.178Z,22.6
2016-01-04T09:23:37.162Z,22.6
2016-01-04T09:23:47.178Z,22.6
2016-01-04T09:23:57.180Z,22.6
2016-01-04T09:24:07.180Z,22.6
2016-01-04T09:24:17.180Z,22.6
2016-01-04T09:24:27.180Z,22.6
2016-01-04T09:24:37.180Z,22.6
2016-01-04T09:24:47.164Z,22.7
2016-01-04T09:24:57.183Z,22.6
2016-01-04T09:25:07.167Z,22.7
2016-01-04T09:25:17.167Z,22.7
2016-01-04T09:25:27.167Z,22.7
2016-01-04T09:25:37.167Z,22.7
2016-01-04T09:25:47.167Z,22.7
2016-01-04T09:25:57.170Z,22.7
2016-01-04T09:26:07.170Z,22.7
2016-01-04T09:26:17.170Z,22.6
2016-01-04T09:26:45.592Z,22.7
2016-01-04T09:26:55.595Z,22.7
2016-01-04T09:27:05.595Z,22.7
2016-01-04T09:27:15.595Z,22.7
2016-01-04T09:27:25.595Z,22.7
2016-01-04T09:27:35.595Z,22.6
2016-01-04T09:27:45.595Z,22.7
2016-01-04T09:27:55.598Z,22.7
2016-01-04T09:28:05.598Z,22.7
2016-01-04T09:28:49.254Z,22.7
2016-01-04T09:28:54.317Z,22.7
2016-01-04T09:29:04.288Z,22.7
2016-01-04T09:29:14.273Z,22.7
2016-01-04T09:29:24.273Z,22.7
2016-01-04T09:30:30.290Z,22.7
2016-01-04T09:30:40.243Z,22.6
2016-01-04T09:30:50.243Z,22.6
2016-01-04T09:31:00.245Z,22.7
2016-01-04T09:31:10.245Z,22.7
2016-01-04T09:31:20.245Z,22.7
2016-01-04T09:31:30.245Z,22.7
2016-01-04T09:31:40.245Z,22.7
2016-01-04T09:31:50.245Z,22.7
2016-01-04T09:32:00.248Z,22.7
2016-01-04T09:32:10.248Z,22.7
2016-01-04T09:32:20.248Z,22.7
2016-01-04T09:32:30.248Z,22.7
2016-01-04T09:32:40.248Z,22.7
2016-01-04T09:32:50.248Z,22.7
2016-01-04T09:33:13.533Z,22.7
2016-01-04T09:33:23.533Z,22.7
2016-01-04T09:33:33.533Z,22.7
2016-01-04T09:33:43.517Z,22.7
2016-01-04T09:33:53.533Z,22.7
2016-01-04T09:34:03.519Z,22.7
2016-01-04T09:34:13.519Z,22.7
2016-01-04T09:34:23.535Z,22.7
2016-01-04T09:34:33.519Z,22.7
2016-01-04T09:34:43.519Z,22.7
2016-01-04T09:34:53.535Z,22.7
2016-01-04T09:35:13.913Z,22.7
2016-01-04T09:35:23.913Z,22.7
2016-01-04T09:35:33.913Z,22.7
2016-01-04T09:35:43.913Z,22.7
2016-01-04T09:35:53.913Z,22.8
2016-01-04T09:36:03.901Z,22.8
2016-01-04T09:36:13.307Z,22.7
2016-01-04T09:36:23.917Z,22.7
2016-01-04T09:36:33.917Z,22.7
2016-01-04T09:36:43.901Z,22.7
2016-01-04T09:37:03.293Z,22.7
2016-01-04T09:37:13.308Z,22.7
2016-01-04T09:37:23.293Z,22.7
2016-01-04T09:37:33.308Z,22.7
2016-01-04T09:37:43.308Z,22.7
2016-01-04T09:37:53.308Z,22.7
2016-01-04T09:38:03.311Z,22.7
2016-01-04T09:38:13.296Z,22.7
2016-01-04T09:38:23.311Z,22.7
2016-01-04T09:38:33.296Z,22.6
2016-01-04T09:38:58.780Z,22.6
2016-01-04T09:39:08.721Z,22.6
2016-01-04T09:39:18.721Z,22.6
2016-01-04T09:39:28.721Z,22.6
2016-01-04T09:39:38.721Z,22.6
2016-01-04T09:39:48.721Z,22.7
2016-01-04T09:39:58.721Z,22.7
2016-01-04T09:40:08.724Z,22.7
2016-01-04T09:40:18.724Z,22.6
2016-01-04T09:40:28.724Z,22.6
2016-01-04T09:40:38.724Z,22.6
2016-01-04T09:40:48.724Z,22.6
2016-01-04T09:41:15.930Z,22.6
2016-01-04T09:41:25.930Z,22.6
2016-01-04T09:41:35.930Z,22.6
2016-01-04T09:41:45.914Z,22.6
2016-01-04T09:42:15.245Z,22.6
2016-01-04T09:42:25.183Z,22.6
2016-01-04T09:42:36.558Z,22.6
2016-01-04T09:42:46.526Z,22.6
2016-01-04T09:43:21.544Z,22.6
2016-01-04T09:43:31.544Z,22.6
2016-01-04T09:43:41.528Z,22.6
2016-01-04T09:43:51.544Z,22.7
2016-01-04T09:44:14.280Z,22.7
2016-01-04T09:44:19.452Z,22.7
2016-01-04T09:44:29.999Z,22.7
2016-01-04T09:44:39.390Z,22.8
2016-01-04T09:44:50.734Z,22.8
2016-01-04T09:45:00.687Z,22.8
2016-01-04T09:45:10.690Z,22.8
2016-01-04T09:45:20.690Z,22.7
2016-01-04T09:45:30.690Z,22.7
2016-01-04T09:45:40.690Z,22.7
2016-01-04T09:45:50.690Z,22.7
2016-01-04T09:46:00.690Z,22.7
2016-01-04T09:46:10.693Z,22.7
2016-01-04T09:46:20.693Z,22.7
2016-01-04T09:46:30.693Z,22.7
2016-01-04T09:46:40.693Z,22.7
2016-01-04T09:46:50.693Z,22.7
2016-01-04T09:47:00.693Z,22.7
2016-01-04T09:47:10.695Z,22.7
2016-01-04T09:47:20.695Z,22.7
2016-01-04T09:47:30.695Z,22.7
2016-01-04T09:47:40.695Z,22.7
2016-01-04T09:47:50.695Z,22.7
2016-01-04T09:48:00.695Z,22.7
2016-01-04T09:48:10.698Z,22.8
2016-01-04T09:48:20.698Z,22.7
2016-01-04T09:48:30.698Z,22.7
2016-01-04T09:48:40.698Z,22.8
2016-01-04T09:48:50.698Z,22.8
2016-01-04T09:49:00.698Z,22.8
2016-01-04T09:49:10.701Z,22.8
2016-01-04T09:49:20.732Z,22.8
2016-01-04T09:49:30.701Z,22.8
2016-01-04T09:49:40.701Z,22.8
2016-01-04T09:49:50.701Z,22.8
2016-01-04T09:50:00.701Z,22.8
2016-01-04T09:50:10.704Z,22.8
2016-01-04T09:50:20.704Z,22.8
2016-01-04T09:50:30.704Z,22.8
2016-01-04T09:50:40.704Z,22.9
2016-01-04T09:50:50.704Z,22.9
2016-01-04T09:51:00.704Z,22.9
2016-01-04T09:51:10.707Z,22.9
2016-01-04T09:51:20.707Z,23
2016-01-04T09:51:30.707Z,22.9
2016-01-04T09:51:40.707Z,23
2016-01-04T09:51:50.707Z,22.9
2016-01-04T09:52:00.691Z,23
2016-01-04T09:52:10.694Z,22.9
2016-01-04T09:52:20.710Z,23
2016-01-04T09:52:30.694Z,23
2016-01-04T09:52:40.694Z,23
2016-01-04T09:52:50.741Z,23
2016-01-04T09:53:00.694Z,23
2016-01-04T09:53:10.696Z,23.1
2016-01-04T09:53:20.696Z,23.1
2016-01-04T09:53:30.696Z,23.1
2016-01-04T09:53:40.696Z,23.1
2016-01-04T09:53:50.712Z,23.1
2016-01-04T09:54:00.696Z,23.1
2016-01-04T09:54:10.698Z,23.2
2016-01-04T09:54:20.698Z,23.2
2016-01-04T09:54:30.698Z,23.2
2016-01-04T09:54:54.339Z,23.3
2016-01-04T09:55:51.607Z,23.1
2016-01-04T09:56:01.560Z,23.1
2016-01-04T09:56:11.563Z,23.1
2016-01-04T09:56:21.563Z,23
2016-01-04T09:56:31.563Z,23
2016-01-04T09:56:41.563Z,23
2016-01-04T09:56:51.563Z,23
2016-01-04T09:57:01.563Z,23
2016-01-04T09:57:11.566Z,22.9
2016-01-04T09:57:21.566Z,22.7
2016-01-04T09:57:31.598Z,22.9
2016-01-04T09:57:41.566Z,23
2016-01-04T09:57:51.566Z,23.1
2016-01-04T09:58:01.566Z,23.2
2016-01-04T09:58:11.568Z,23.3
2016-01-04T09:58:21.568Z,23.4
2016-01-04T09:58:31.568Z,23.4
2016-01-04T09:58:41.568Z,23.3
2016-01-04T09:58:51.553Z,23.3
2016-01-04T09:59:01.568Z,23.2
2016-01-04T09:59:37.650Z,23.2
2016-01-04T09:59:47.650Z,23.1
2016-01-04T09:59:57.650Z,23.1
2016-01-04T10:00:07.653Z,23.1
2016-01-04T10:00:17.637Z,23.1
2016-01-04T10:00:27.637Z,23
2016-01-04T10:00:37.637Z,23
2016-01-04T10:00:47.653Z,23
2016-01-04T10:00:57.637Z,23
2016-01-04T10:01:07.640Z,23
2016-01-04T10:01:17.640Z,23
2016-01-04T10:01:27.640Z,23
2016-01-04T10:01:37.640Z,23
2016-01-04T10:01:47.640Z,23
2016-01-04T10:01:57.718Z,23
2016-01-04T10:02:07.643Z,23
2016-01-04T10:02:17.643Z,23
2016-01-04T10:02:27.646Z,23
2016-01-04T10:02:37.646Z,23
2016-01-04T10:02:47.646Z,23
2016-01-04T10:02:57.646Z,23
2016-01-04T10:03:07.648Z,23
2016-01-04T10:03:17.648Z,23
2016-01-04T10:03:27.648Z,23
2016-01-04T10:03:37.648Z,23
2016-01-04T10:03:47.648Z,23.1
2016-01-04T10:03:57.632Z,23.1
2016-01-04T10:04:07.634Z,23.1
2016-01-04T10:04:17.634Z,23.2
2016-01-04T10:04:27.634Z,23.1
2016-01-04T10:04:37.634Z,23.1
2016-01-04T10:04:47.650Z,23.1
2016-01-04T10:05:07.556Z,23
2016-01-04T10:05:17.590Z,23
2016-01-04T10:05:27.559Z,23
2016-01-04T10:05:37.559Z,23
2016-01-04T10:05:47.559Z,23
2016-01-04T10:05:57.559Z,23
2016-01-04T10:06:07.559Z,23
2016-01-04T10:06:17.562Z,22.9
2016-01-04T10:06:27.562Z,22.9
2016-01-04T10:06:37.562Z,22.9
2016-01-04T10:06:47.562Z,22.9
2016-01-04T10:06:57.562Z,23
2016-01-04T10:07:07.562Z,22.9
2016-01-04T10:07:17.565Z,23
2016-01-04T10:07:42.300Z,22.9
2016-01-04T10:07:52.300Z,22.9
2016-01-04T10:08:02.300Z,22.9
2016-01-04T10:08:12.302Z,22.9
2016-01-04T10:09:12.680Z,22.9
2016-01-04T10:09:22.633Z,22.9
2016-01-04T10:09:32.648Z,23
2016-01-04T10:10:24.620Z,22.9
2016-01-04T10:11:01.636Z,22.9
2016-01-04T10:11:11.606Z,22.9
2016-01-04T10:11:36.060Z,22.9
2016-01-04T10:12:01.528Z,23
2016-01-04T10:12:24.109Z,23
2016-01-04T10:12:45.547Z,23
2016-01-04T10:12:55.484Z,22.9
2016-01-04T10:13:05.484Z,22.9
2016-01-04T10:13:33.191Z,22.9
2016-01-04T10:13:43.191Z,22.9
2016-01-04T10:13:53.191Z,22.9
2016-01-04T10:14:03.191Z,22.9
2016-01-04T10:14:13.194Z,22.9
2016-01-04T10:14:31.100Z,22.9
2016-01-04T10:14:55.365Z,22.8
2016-01-04T10:15:05.334Z,22.8
2016-01-04T12:08:38.828Z,19
2016-01-04T12:08:48.828Z,19
2016-01-04T12:08:58.830Z,19
2016-01-04T12:09:08.830Z,19.1
2016-01-04T12:09:18.970Z,19.1
2016-01-04T12:09:28.830Z,19.1
2016-01-04T12:09:38.830Z,19.2
2016-01-04T12:09:48.830Z,19.2
2016-01-04T12:09:58.833Z,19.2
2016-01-04T12:10:17.911Z,19.3
2016-01-04T12:10:27.864Z,19.3
2016-01-04T12:10:37.864Z,19.4
2016-01-04T12:10:47.864Z,19.4
2016-01-04T12:11:07.100Z,19.5
2016-01-04T12:11:17.053Z,19.5
2016-01-04T12:11:27.053Z,19.6
2016-01-04T12:11:37.053Z,19.6
2016-01-04T12:12:10.542Z,19.6
2016-01-04T12:12:20.464Z,19.6
2016-01-04T12:12:30.479Z,19.6
2016-01-04T12:12:40.464Z,19.6
2016-01-04T12:12:50.464Z,19.6
2016-01-04T12:13:00.466Z,19.6
2016-01-04T12:13:10.466Z,19.7
2016-01-04T12:13:20.481Z,19.7
2016-01-04T12:13:30.684Z,19.7
2016-01-04T12:13:40.466Z,19.7
2016-01-04T12:13:50.466Z,19.7
2016-01-04T12:14:00.469Z,19.8
2016-01-04T12:14:10.469Z,19.8
2016-01-04T12:14:20.469Z,19.8
2016-01-04T12:14:30.469Z,19.8
2016-01-04T12:14:40.469Z,19.8
2016-01-04T12:15:00.003Z,19.9
2016-01-04T12:15:09.956Z,19.9
2016-01-04T12:15:19.956Z,19.9
2016-01-04T12:15:29.956Z,19.9
2016-01-04T12:15:49.269Z,19.9
2016-01-04T12:15:59.206Z,19.9
2016-01-04T12:16:09.208Z,19.9
2016-01-04T12:16:19.208Z,20
2016-01-04T12:16:29.208Z,20
2016-01-04T12:16:39.208Z,20
2016-01-04T12:16:49.208Z,20
2016-01-04T12:16:59.208Z,20
2016-01-04T12:17:09.414Z,20.1
2016-01-04T12:17:19.211Z,20.1
2016-01-04T12:17:29.211Z,19.9
2016-01-04T12:17:39.211Z,19.9
2016-01-04T12:17:49.227Z,19.9
2016-01-04T12:17:59.211Z,19.9
2016-01-04T12:18:09.214Z,19.9
2016-01-04T12:18:19.214Z,19.9
2016-01-04T12:18:29.214Z,19.8
2016-01-04T12:18:39.214Z,19.8
2016-01-04T12:18:49.198Z,19.8
2016-01-04T12:18:59.214Z,19.8
2016-01-04T12:19:09.216Z,19.9
2016-01-04T12:19:19.200Z,19.9
